Kremmling, CO

7:10 PM MDT on August 26, 2016 (GMT -0600)
Kremmling | | Change Station

Elev 7411 ft 40.05 °N, 106.37 °W | Updated 14 minutes ago

Scattered Clouds
Scattered Clouds
55 °F
Feels Like 55 °F
N
0
Wind Variable Wind from North

Today
High -- | Low -- °F
--% Chance of Precip.
Yesterday
High -- | Low -- °F
Precip. -- in
Pressure 30.25 in
Visibility 10.0 miles
Clouds Scattered Clouds 11000 ft
Dew Point 37 °F
Humidity 51%
Rainfall 0.22 in
Snow Depth Not available.
6:28 AM 7:45 PM
Waning Crescent, 29% visible
METAR K20V 270056Z AUTO 00000KT 10SM SCT110 13/03 A3025 RMK AO2 LTG DSNT W
Pressure 30.25 in
Visibility 10.0 miles
Clouds Scattered Clouds 11000 ft
Dew Point 37 °F
Humidity 51%
Rainfall 0.22 in
Snow Depth Not available.
6:28 AM 7:45 PM
Waning Crescent, 29% visible
METAR K20V 270056Z AUTO 00000KT 10SM SCT110 13/03 A3025 RMK AO2 LTG DSNT W

10-Day Weather Forecast

Almanac

Astronomy

Aug. 26, 2016 Rise Set
Actual Time
Civil Twilight
Nautical Twilight
Astronomical Twilight
Moon
Length of Visible Light
Length of Day
Tomorrow will be .
, % of the Moon is Illuminated

Today's Extremes

State Highs State Lows

Community

WunderPhotos

Upload Photos

1,935,261 photos uploaded!

WunderBlog® & News

Nearby

Air Quality

  Air Quality AQ Index Pollutant
Not available.

Snow Depth

Station Depth Elevation

Earthquake Activity

City Distance Mag. Time & Date
Minimum magnitude displayed is 2.5.

Coastal Water Temperatures

Place Temperature

Stations

Nearby Weather Stations

Station Location Temp. Windchill Dew Point Humidity Wind Precip. Elev Updated Type
                   

Watches & Warnings

There are currently no watches in effect.